sensor_id;sensor_type;location;lat;lon;timestamp;temperature;humidity
67598;DHT22;62026;39.230;9.122;2023-08-31T00:00:49;23.50;54.40
67598;DHT22;62026;39.230;9.122;2023-08-31T00:03:17;23.50;54.60
67598;DHT22;62026;39.230;9.122;2023-08-31T00:05:43;23.50;54.60
67598;DHT22;62026;39.230;9.122;2023-08-31T00:08:10;23.40;54.60
67598;DHT22;62026;39.230;9.122;2023-08-31T00:10:37;23.40;54.60
67598;DHT22;62026;39.230;9.122;2023-08-31T00:13:04;23.40;54.70
67598;DHT22;62026;39.230;9.122;2023-08-31T00:15:32;23.40;54.70
67598;DHT22;62026;39.230;9.122;2023-08-31T00:18:00;23.40;54.70
67598;DHT22;62026;39.230;9.122;2023-08-31T00:20:33;23.30;54.70
67598;DHT22;62026;39.230;9.122;2023-08-31T00:22:59;23.30;54.80
67598;DHT22;62026;39.230;9.122;2023-08-31T00:25:26;23.30;54.80
67598;DHT22;62026;39.230;9.122;2023-08-31T00:27:52;23.30;54.90
67598;DHT22;62026;39.230;9.122;2023-08-31T00:30:20;23.30;54.90
67598;DHT22;62026;39.230;9.122;2023-08-31T00:32:46;23.30;54.90
67598;DHT22;62026;39.230;9.122;2023-08-31T00:35:16;23.30;54.90
67598;DHT22;62026;39.230;9.122;2023-08-31T00:37:42;23.30;55.00
67598;DHT22;62026;39.230;9.122;2023-08-31T00:40:09;23.20;55.00
67598;DHT22;62026;39.230;9.122;2023-08-31T00:42:39;23.20;55.10
67598;DHT22;62026;39.230;9.122;2023-08-31T00:45:06;23.20;55.10
67598;DHT22;62026;39.230;9.122;2023-08-31T00:47:32;23.20;55.10
67598;DHT22;62026;39.230;9.122;2023-08-31T00:49:59;23.20;55.10
67598;DHT22;62026;39.230;9.122;2023-08-31T00:52:27;23.20;55.10
67598;DHT22;62026;39.230;9.122;2023-08-31T00:54:53;23.10;55.10
67598;DHT22;62026;39.230;9.122;2023-08-31T00:57:19;23.10;55.30
67598;DHT22;62026;39.230;9.122;2023-08-31T00:59:45;23.10;55.30
67598;DHT22;62026;39.230;9.122;2023-08-31T01:02:20;23.10;55.30
67598;DHT22;62026;39.230;9.122;2023-08-31T01:08:21;23.10;55.40
67598;DHT22;62026;39.230;9.122;2023-08-31T01:13:40;23.10;55.40
67598;DHT22;62026;39.230;9.122;2023-08-31T01:16:10;23.10;55.60
67598;DHT22;62026;39.230;9.122;2023-08-31T01:18:40;23.10;55.60
67598;DHT22;62026;39.230;9.122;2023-08-31T01:21:27;23.10;55.70
67598;DHT22;62026;39.230;9.122;2023-08-31T01:24:01;23.10;55.60
67598;DHT22;62026;39.230;9.122;2023-08-31T01:26:28;23.00;55.70
67598;DHT22;62026;39.230;9.122;2023-08-31T01:28:55;23.00;55.70
67598;DHT22;62026;39.230;9.122;2023-08-31T01:31:21;23.00;55.70
67598;DHT22;62026;39.230;9.122;2023-08-31T01:33:47;23.00;55.60
67598;DHT22;62026;39.230;9.122;2023-08-31T01:36:30;23.00;55.70
67598;DHT22;62026;39.230;9.122;2023-08-31T01:39:23;23.00;55.80
67598;DHT22;62026;39.230;9.122;2023-08-31T01:42:16;23.00;55.70
67598;DHT22;62026;39.230;9.122;2023-08-31T01:44:43;22.90;55.80
67598;DHT22;62026;39.230;9.122;2023-08-31T01:47:15;23.00;55.70
67598;DHT22;62026;39.230;9.122;2023-08-31T01:49:44;22.90;55.80
67598;DHT22;62026;39.230;9.122;2023-08-31T01:52:10;22.90;55.80
67598;DHT22;62026;39.230;9.122;2023-08-31T01:54:36;22.90;55.80
67598;DHT22;62026;39.230;9.122;2023-08-31T01:57:05;22.90;55.90
67598;DHT22;62026;39.230;9.122;2023-08-31T01:59:33;22.80;56.00
67598;DHT22;62026;39.230;9.122;2023-08-31T02:02:00;22.80;56.10
67598;DHT22;62026;39.230;9.122;2023-08-31T02:04:26;22.80;56.10
67598;DHT22;62026;39.230;9.122;2023-08-31T02:06:52;22.80;56.20
67598;DHT22;62026;39.230;9.122;2023-08-31T02:09:18;22.80;56.20
67598;DHT22;62026;39.230;9.122;2023-08-31T02:11:45;22.80;56.20
67598;DHT22;62026;39.230;9.122;2023-08-31T02:14:11;22.80;56.40
67598;DHT22;62026;39.230;9.122;2023-08-31T02:16:37;22.80;56.40
67598;DHT22;62026;39.230;9.122;2023-08-31T02:19:03;22.80;56.30
67598;DHT22;62026;39.230;9.122;2023-08-31T02:21:29;22.80;56.30
67598;DHT22;62026;39.230;9.122;2023-08-31T02:23:55;22.70;56.40
67598;DHT22;62026;39.230;9.122;2023-08-31T02:26:21;22.70;56.40
67598;DHT22;62026;39.230;9.122;2023-08-31T02:28:48;22.70;56.30
67598;DHT22;62026;39.230;9.122;2023-08-31T02:31:14;22.70;56.40
67598;DHT22;62026;39.230;9.122;2023-08-31T02:33:44;22.70;56.50
67598;DHT22;62026;39.230;9.122;2023-08-31T02:36:12;22.70;56.40
67598;DHT22;62026;39.230;9.122;2023-08-31T02:38:41;22.70;56.50
67598;DHT22;62026;39.230;9.122;2023-08-31T02:41:07;22.60;56.70
67598;DHT22;62026;39.230;9.122;2023-08-31T02:43:33;22.60;56.70
67598;DHT22;62026;39.230;9.122;2023-08-31T02:46:00;22.60;56.70
67598;DHT22;62026;39.230;9.122;2023-08-31T02:48:27;22.60;56.80
67598;DHT22;62026;39.230;9.122;2023-08-31T02:50:54;22.60;57.00
67598;DHT22;62026;39.230;9.122;2023-08-31T02:53:20;22.60;56.90
67598;DHT22;62026;39.230;9.122;2023-08-31T02:55:46;22.60;57.00
67598;DHT22;62026;39.230;9.122;2023-08-31T02:58:11;22.60;57.10
67598;DHT22;62026;39.230;9.122;2023-08-31T03:00:38;22.60;57.20
67598;DHT22;62026;39.230;9.122;2023-08-31T03:03:08;22.60;57.30
67598;DHT22;62026;39.230;9.122;2023-08-31T03:05:34;22.50;57.50
67598;DHT22;62026;39.230;9.122;2023-08-31T03:08:00;22.60;57.60
67598;DHT22;62026;39.230;9.122;2023-08-31T03:10:26;22.50;57.60
67598;DHT22;62026;39.230;9.122;2023-08-31T03:12:52;22.50;57.80
67598;DHT22;62026;39.230;9.122;2023-08-31T03:15:18;22.50;57.90
67598;DHT22;62026;39.230;9.122;2023-08-31T03:17:44;22.50;57.90
67598;DHT22;62026;39.230;9.122;2023-08-31T03:20:10;22.50;57.90
67598;DHT22;62026;39.230;9.122;2023-08-31T03:22:37;22.50;58.00
67598;DHT22;62026;39.230;9.122;2023-08-31T03:25:03;22.50;57.80
67598;DHT22;62026;39.230;9.122;2023-08-31T03:27:29;22.50;57.90
67598;DHT22;62026;39.230;9.122;2023-08-31T03:29:55;22.50;57.90
67598;DHT22;62026;39.230;9.122;2023-08-31T03:32:22;22.50;57.90
67598;DHT22;62026;39.230;9.122;2023-08-31T03:34:48;22.50;58.00
67598;DHT22;62026;39.230;9.122;2023-08-31T03:37:15;22.50;58.00
67598;DHT22;62026;39.230;9.122;2023-08-31T03:39:41;22.50;57.90
67598;DHT22;62026;39.230;9.122;2023-08-31T03:42:09;22.40;58.00
67598;DHT22;62026;39.230;9.122;2023-08-31T03:44:35;22.40;58.00
67598;DHT22;62026;39.230;9.122;2023-08-31T03:47:03;22.40;58.20
67598;DHT22;62026;39.230;9.122;2023-08-31T03:49:29;22.40;58.30
67598;DHT22;62026;39.230;9.122;2023-08-31T03:51:57;22.40;58.30
67598;DHT22;62026;39.230;9.122;2023-08-31T03:54:24;22.40;58.30
67598;DHT22;62026;39.230;9.122;2023-08-31T03:56:51;22.40;58.30
67598;DHT22;62026;39.230;9.122;2023-08-31T03:59:17;22.40;58.40
67598;DHT22;62026;39.230;9.122;2023-08-31T04:01:45;22.30;58.40
67598;DHT22;62026;39.230;9.122;2023-08-31T04:04:11;22.30;58.50
67598;DHT22;62026;39.230;9.122;2023-08-31T04:06:37;22.30;58.50
67598;DHT22;62026;39.230;9.122;2023-08-31T04:09:05;22.30;58.60
67598;DHT22;62026;39.230;9.122;2023-08-31T04:11:33;22.30;58.70
67598;DHT22;62026;39.230;9.122;2023-08-31T04:13:59;22.30;58.70
67598;DHT22;62026;39.230;9.122;2023-08-31T04:16:25;22.30;58.70
67598;DHT22;62026;39.230;9.122;2023-08-31T04:18:52;22.30;58.80
67598;DHT22;62026;39.230;9.122;2023-08-31T04:21:18;22.20;58.80
67598;DHT22;62026;39.230;9.122;2023-08-31T04:23:44;22.20;58.80
67598;DHT22;62026;39.230;9.122;2023-08-31T04:26:14;22.20;58.90
67598;DHT22;62026;39.230;9.122;2023-08-31T04:28:43;22.20;58.90
67598;DHT22;62026;39.230;9.122;2023-08-31T04:31:09;22.20;59.00
67598;DHT22;62026;39.230;9.122;2023-08-31T04:33:37;22.20;59.00
67598;DHT22;62026;39.230;9.122;2023-08-31T04:36:05;22.20;59.00
67598;DHT22;62026;39.230;9.122;2023-08-31T04:38:32;22.20;59.20
67598;DHT22;62026;39.230;9.122;2023-08-31T04:40:59;22.20;59.20
67598;DHT22;62026;39.230;9.122;2023-08-31T04:43:26;22.20;59.30
67598;DHT22;62026;39.230;9.122;2023-08-31T04:45:53;22.10;59.30
67598;DHT22;62026;39.230;9.122;2023-08-31T04:48:19;22.10;59.40
67598;DHT22;62026;39.230;9.122;2023-08-31T04:50:45;22.10;59.50
67598;DHT22;62026;39.230;9.122;2023-08-31T04:53:11;22.10;59.40
67598;DHT22;62026;39.230;9.122;2023-08-31T04:55:37;22.10;59.40
67598;DHT22;62026;39.230;9.122;2023-08-31T04:58:04;22.10;59.50
67598;DHT22;62026;39.230;9.122;2023-08-31T05:00:31;22.10;59.40
67598;DHT22;62026;39.230;9.122;2023-08-31T05:02:57;22.00;59.60
67598;DHT22;62026;39.230;9.122;2023-08-31T05:05:23;22.00;59.60
67598;DHT22;62026;39.230;9.122;2023-08-31T05:07:49;22.00;59.60
67598;DHT22;62026;39.230;9.122;2023-08-31T05:10:15;22.00;59.70
67598;DHT22;62026;39.230;9.122;2023-08-31T05:12:42;22.00;59.70
67598;DHT22;62026;39.230;9.122;2023-08-31T05:15:08;22.00;59.60
67598;DHT22;62026;39.230;9.122;2023-08-31T05:17:35;22.00;59.50
67598;DHT22;62026;39.230;9.122;2023-08-31T05:20:01;22.00;59.60
67598;DHT22;62026;39.230;9.122;2023-08-31T05:22:29;22.00;59.70
67598;DHT22;62026;39.230;9.122;2023-08-31T05:24:55;22.00;59.80
67598;DHT22;62026;39.230;9.122;2023-08-31T05:27:21;22.00;59.90
67598;DHT22;62026;39.230;9.122;2023-08-31T05:29:47;22.00;59.90
67598;DHT22;62026;39.230;9.122;2023-08-31T05:32:13;22.00;59.90
67598;DHT22;62026;39.230;9.122;2023-08-31T05:34:39;22.10;59.90
67598;DHT22;62026;39.230;9.122;2023-08-31T05:37:05;22.10;60.00
67598;DHT22;62026;39.230;9.122;2023-08-31T05:39:31;22.10;60.00
67598;DHT22;62026;39.230;9.122;2023-08-31T05:41:57;22.10;60.00
67598;DHT22;62026;39.230;9.122;2023-08-31T05:44:23;22.10;60.00
67598;DHT22;62026;39.230;9.122;2023-08-31T05:46:49;22.20;60.00
67598;DHT22;62026;39.230;9.122;2023-08-31T05:49:15;22.20;59.90
67598;DHT22;62026;39.230;9.122;2023-08-31T05:51:41;22.30;59.90
67598;DHT22;62026;39.230;9.122;2023-08-31T05:54:08;22.30;59.90
67598;DHT22;62026;39.230;9.122;2023-08-31T05:56:39;22.40;59.90
67598;DHT22;62026;39.230;9.122;2023-08-31T05:59:08;22.40;60.00
67598;DHT22;62026;39.230;9.122;2023-08-31T06:01:37;22.40;60.00
67598;DHT22;62026;39.230;9.122;2023-08-31T06:04:03;22.50;59.90
67598;DHT22;62026;39.230;9.122;2023-08-31T06:06:31;22.60;59.70
67598;DHT22;62026;39.230;9.122;2023-08-31T06:08:58;22.70;59.50
67598;DHT22;62026;39.230;9.122;2023-08-31T06:11:24;22.80;59.40
67598;DHT22;62026;39.230;9.122;2023-08-31T06:13:50;22.80;59.40
67598;DHT22;62026;39.230;9.122;2023-08-31T06:16:16;22.90;59.20
67598;DHT22;62026;39.230;9.122;2023-08-31T06:18:42;23.00;59.00
67598;DHT22;62026;39.230;9.122;2023-08-31T06:21:09;23.10;58.80
67598;DHT22;62026;39.230;9.122;2023-08-31T06:23:35;23.20;58.80
67598;DHT22;62026;39.230;9.122;2023-08-31T06:26:01;23.30;58.80
67598;DHT22;62026;39.230;9.122;2023-08-31T06:28:27;23.30;58.70
67598;DHT22;62026;39.230;9.122;2023-08-31T06:30:53;23.40;58.30
67598;DHT22;62026;39.230;9.122;2023-08-31T06:33:19;23.50;58.10
67598;DHT22;62026;39.230;9.122;2023-08-31T06:35:48;23.60;57.90
67598;DHT22;62026;39.230;9.122;2023-08-31T06:38:17;23.70;57.70
67598;DHT22;62026;39.230;9.122;2023-08-31T06:40:44;23.80;57.50
67598;DHT22;62026;39.230;9.122;2023-08-31T06:43:10;23.90;57.40
67598;DHT22;62026;39.230;9.122;2023-08-31T06:45:36;24.00;57.30
67598;DHT22;62026;39.230;9.122;2023-08-31T06:48:02;24.20;57.20
67598;DHT22;62026;39.230;9.122;2023-08-31T06:50:29;24.40;56.80
67598;DHT22;62026;39.230;9.122;2023-08-31T06:52:55;24.50;56.20
67598;DHT22;62026;39.230;9.122;2023-08-31T06:55:21;24.60;56.20
67598;DHT22;62026;39.230;9.122;2023-08-31T06:57:48;24.80;55.80
67598;DHT22;62026;39.230;9.122;2023-08-31T07:00:14;24.90;55.80
67598;DHT22;62026;39.230;9.122;2023-08-31T07:02:41;25.00;55.60
67598;DHT22;62026;39.230;9.122;2023-08-31T07:05:07;25.20;55.30
67598;DHT22;62026;39.230;9.122;2023-08-31T07:07:35;25.30;54.90
67598;DHT22;62026;39.230;9.122;2023-08-31T07:10:01;25.30;54.90
67598;DHT22;62026;39.230;9.122;2023-08-31T07:12:27;25.50;54.60
67598;DHT22;62026;39.230;9.122;2023-08-31T07:14:53;25.60;54.30
67598;DHT22;62026;39.230;9.122;2023-08-31T07:17:19;25.70;54.00
67598;DHT22;62026;39.230;9.122;2023-08-31T07:19:45;25.90;53.50
67598;DHT22;62026;39.230;9.122;2023-08-31T07:22:12;26.00;53.30
67598;DHT22;62026;39.230;9.122;2023-08-31T07:24:38;26.10;52.90
67598;DHT22;62026;39.230;9.122;2023-08-31T07:27:05;26.20;52.70
67598;DHT22;62026;39.230;9.122;2023-08-31T07:29:31;26.30;52.70
67598;DHT22;62026;39.230;9.122;2023-08-31T07:31:57;26.40;52.30
67598;DHT22;62026;39.230;9.122;2023-08-31T07:34:24;26.50;52.10
67598;DHT22;62026;39.230;9.122;2023-08-31T07:36:50;26.60;51.90
67598;DHT22;62026;39.230;9.122;2023-08-31T07:39:16;26.70;51.60
67598;DHT22;62026;39.230;9.122;2023-08-31T07:41:45;26.90;51.40
67598;DHT22;62026;39.230;9.122;2023-08-31T07:44:11;27.00;50.90
67598;DHT22;62026;39.230;9.122;2023-08-31T07:46:37;27.20;50.50
67598;DHT22;62026;39.230;9.122;2023-08-31T07:49:03;27.20;50.00
67598;DHT22;62026;39.230;9.122;2023-08-31T07:51:30;27.30;49.90
67598;DHT22;62026;39.230;9.122;2023-08-31T07:53:56;27.40;49.50
67598;DHT22;62026;39.230;9.122;2023-08-31T07:56:23;27.50;49.40
67598;DHT22;62026;39.230;9.122;2023-08-31T07:58:51;27.60;49.30
67598;DHT22;62026;39.230;9.122;2023-08-31T08:01:17;27.70;49.30
67598;DHT22;62026;39.230;9.122;2023-08-31T08:03:43;27.80;49.10
67598;DHT22;62026;39.230;9.122;2023-08-31T08:06:09;28.00;49.00
67598;DHT22;62026;39.230;9.122;2023-08-31T08:08:35;28.00;49.00
67598;DHT22;62026;39.230;9.122;2023-08-31T08:11:01;27.90;49.40
67598;DHT22;62026;39.230;9.122;2023-08-31T08:13:28;28.00;49.30
67598;DHT22;62026;39.230;9.122;2023-08-31T08:15:54;28.20;49.10
67598;DHT22;62026;39.230;9.122;2023-08-31T08:18:20;28.20;49.00
67598;DHT22;62026;39.230;9.122;2023-08-31T08:20:52;28.10;48.90
67598;DHT22;62026;39.230;9.122;2023-08-31T08:23:19;28.00;48.80
67598;DHT22;62026;39.230;9.122;2023-08-31T08:25:45;28.20;48.50
67598;DHT22;62026;39.230;9.122;2023-08-31T08:28:11;28.40;48.20
67598;DHT22;62026;39.230;9.122;2023-08-31T08:30:37;28.40;48.00
67598;DHT22;62026;39.230;9.122;2023-08-31T08:33:03;28.40;47.80
67598;DHT22;62026;39.230;9.122;2023-08-31T08:35:29;28.40;47.60
67598;DHT22;62026;39.230;9.122;2023-08-31T08:37:55;28.50;47.60
67598;DHT22;62026;39.230;9.122;2023-08-31T08:40:21;28.50;47.50
67598;DHT22;62026;39.230;9.122;2023-08-31T08:42:47;28.30;47.40
67598;DHT22;62026;39.230;9.122;2023-08-31T08:45:15;28.40;47.40
67598;DHT22;62026;39.230;9.122;2023-08-31T08:47:46;28.70;46.60
67598;DHT22;62026;39.230;9.122;2023-08-31T08:50:13;28.90;46.50
67598;DHT22;62026;39.230;9.122;2023-08-31T08:52:39;29.10;45.40
67598;DHT22;62026;39.230;9.122;2023-08-31T08:55:07;29.20;45.10
67598;DHT22;62026;39.230;9.122;2023-08-31T08:57:34;29.30;45.00
67598;DHT22;62026;39.230;9.122;2023-08-31T09:00:01;29.40;45.00
67598;DHT22;62026;39.230;9.122;2023-08-31T09:02:28;29.50;45.10
67598;DHT22;62026;39.230;9.122;2023-08-31T09:04:54;29.60;45.30
67598;DHT22;62026;39.230;9.122;2023-08-31T09:07:21;29.60;45.30
67598;DHT22;62026;39.230;9.122;2023-08-31T09:09:54;29.50;45.00
67598;DHT22;62026;39.230;9.122;2023-08-31T09:12:24;29.50;45.00
67598;DHT22;62026;39.230;9.122;2023-08-31T09:15:02;29.70;44.50
67598;DHT22;62026;39.230;9.122;2023-08-31T09:17:42;29.90;44.20
67598;DHT22;62026;39.230;9.122;2023-08-31T09:20:12;29.80;44.10
67598;DHT22;62026;39.230;9.122;2023-08-31T09:22:42;29.60;44.50
67598;DHT22;62026;39.230;9.122;2023-08-31T09:25:12;29.70;44.40
67598;DHT22;62026;39.230;9.122;2023-08-31T09:27:38;29.40;44.80
67598;DHT22;62026;39.230;9.122;2023-08-31T09:30:08;29.30;45.20
67598;DHT22;62026;39.230;9.122;2023-08-31T09:32:35;29.30;45.20
67598;DHT22;62026;39.230;9.122;2023-08-31T09:35:02;29.40;45.10
67598;DHT22;62026;39.230;9.122;2023-08-31T09:37:29;29.60;45.00
67598;DHT22;62026;39.230;9.122;2023-08-31T09:39:55;29.80;44.40
67598;DHT22;62026;39.230;9.122;2023-08-31T09:42:21;29.90;43.90
67598;DHT22;62026;39.230;9.122;2023-08-31T09:44:49;29.70;44.30
67598;DHT22;62026;39.230;9.122;2023-08-31T09:47:17;29.90;44.10
67598;DHT22;62026;39.230;9.122;2023-08-31T09:49:45;30.10;43.80
67598;DHT22;62026;39.230;9.122;2023-08-31T09:52:12;29.90;43.80
67598;DHT22;62026;39.230;9.122;2023-08-31T09:54:41;30.20;43.70
67598;DHT22;62026;39.230;9.122;2023-08-31T09:57:10;30.20;43.70
67598;DHT22;62026;39.230;9.122;2023-08-31T09:59:39;29.90;44.10
67598;DHT22;62026;39.230;9.122;2023-08-31T10:02:07;29.80;44.00
67598;DHT22;62026;39.230;9.122;2023-08-31T10:04:35;29.80;43.60
67598;DHT22;62026;39.230;9.122;2023-08-31T10:07:03;30.10;43.10
67598;DHT22;62026;39.230;9.122;2023-08-31T10:09:32;30.40;43.10
67598;DHT22;62026;39.230;9.122;2023-08-31T10:11:58;30.40;43.30
67598;DHT22;62026;39.230;9.122;2023-08-31T10:14:24;30.50;42.50
67598;DHT22;62026;39.230;9.122;2023-08-31T10:16:52;30.50;42.40
67598;DHT22;62026;39.230;9.122;2023-08-31T10:19:19;30.30;42.60
67598;DHT22;62026;39.230;9.122;2023-08-31T10:21:45;30.10;43.10
67598;DHT22;62026;39.230;9.122;2023-08-31T10:24:11;30.20;42.00
67598;DHT22;62026;39.230;9.122;2023-08-31T10:26:37;30.20;41.40
67598;DHT22;62026;39.230;9.122;2023-08-31T10:29:03;30.30;41.60
67598;DHT22;62026;39.230;9.122;2023-08-31T10:31:32;30.40;41.90
67598;DHT22;62026;39.230;9.122;2023-08-31T10:33:59;30.40;42.10
67598;DHT22;62026;39.230;9.122;2023-08-31T10:36:36;30.00;42.40
67598;DHT22;62026;39.230;9.122;2023-08-31T10:41:39;29.80;41.80
67598;DHT22;62026;39.230;9.122;2023-08-31T10:44:26;29.90;41.60
67598;DHT22;62026;39.230;9.122;2023-08-31T10:46:59;29.90;42.00
67598;DHT22;62026;39.230;9.122;2023-08-31T10:49:29;29.90;42.30
67598;DHT22;62026;39.230;9.122;2023-08-31T10:52:19;30.00;42.40
67598;DHT22;62026;39.230;9.122;2023-08-31T10:54:46;29.70;40.90
67598;DHT22;62026;39.230;9.122;2023-08-31T10:57:13;29.50;41.40
67598;DHT22;62026;39.230;9.122;2023-08-31T10:59:49;29.50;41.60
67598;DHT22;62026;39.230;9.122;2023-08-31T11:05:14;29.50;41.60
67598;DHT22;62026;39.230;9.122;2023-08-31T11:07:44;29.40;41.60
67598;DHT22;62026;39.230;9.122;2023-08-31T11:10:25;29.20;41.90
67598;DHT22;62026;39.230;9.122;2023-08-31T11:12:55;29.20;42.30
67598;DHT22;62026;39.230;9.122;2023-08-31T11:15:24;29.30;42.00
67598;DHT22;62026;39.230;9.122;2023-08-31T11:17:53;29.30;41.90
67598;DHT22;62026;39.230;9.122;2023-08-31T11:20:22;29.40;41.60
67598;DHT22;62026;39.230;9.122;2023-08-31T11:22:51;29.40;41.70
67598;DHT22;62026;39.230;9.122;2023-08-31T11:25:20;29.20;42.00
67598;DHT22;62026;39.230;9.122;2023-08-31T11:28:00;29.10;41.50
67598;DHT22;62026;39.230;9.122;2023-08-31T11:30:31;29.00;41.90
67598;DHT22;62026;39.230;9.122;2023-08-31T11:33:02;28.90;42.00
67598;DHT22;62026;39.230;9.122;2023-08-31T11:35:38;29.10;41.90
67598;DHT22;62026;39.230;9.122;2023-08-31T11:38:06;29.10;41.70
67598;DHT22;62026;39.230;9.122;2023-08-31T11:40:33;29.10;41.70
67598;DHT22;62026;39.230;9.122;2023-08-31T11:42:59;29.00;41.50
67598;DHT22;62026;39.230;9.122;2023-08-31T11:45:26;29.00;41.60
67598;DHT22;62026;39.230;9.122;2023-08-31T11:47:53;29.00;41.90
67598;DHT22;62026;39.230;9.122;2023-08-31T11:50:22;28.90;42.20
67598;DHT22;62026;39.230;9.122;2023-08-31T11:52:50;28.90;42.00
67598;DHT22;62026;39.230;9.122;2023-08-31T11:55:18;28.90;42.20
67598;DHT22;62026;39.230;9.122;2023-08-31T11:57:53;28.90;42.10
67598;DHT22;62026;39.230;9.122;2023-08-31T12:00:21;28.80;42.20
67598;DHT22;62026;39.230;9.122;2023-08-31T12:03:00;28.90;41.50
67598;DHT22;62026;39.230;9.122;2023-08-31T12:05:28;28.90;41.60
67598;DHT22;62026;39.230;9.122;2023-08-31T12:07:55;28.90;41.70
67598;DHT22;62026;39.230;9.122;2023-08-31T12:10:24;28.90;41.40
67598;DHT22;62026;39.230;9.122;2023-08-31T12:12:51;28.80;41.30
67598;DHT22;62026;39.230;9.122;2023-08-31T12:15:18;28.80;41.50
67598;DHT22;62026;39.230;9.122;2023-08-31T12:17:48;28.70;41.80
67598;DHT22;62026;39.230;9.122;2023-08-31T12:20:25;28.70;41.30
67598;DHT22;62026;39.230;9.122;2023-08-31T12:22:52;28.80;41.70
67598;DHT22;62026;39.230;9.122;2023-08-31T12:25:22;28.80;42.30
67598;DHT22;62026;39.230;9.122;2023-08-31T12:27:49;28.80;42.30
67598;DHT22;62026;39.230;9.122;2023-08-31T12:30:15;28.70;40.40
67598;DHT22;62026;39.230;9.122;2023-08-31T12:32:41;28.60;40.90
67598;DHT22;62026;39.230;9.122;2023-08-31T12:35:07;28.60;40.90
67598;DHT22;62026;39.230;9.122;2023-08-31T12:37:35;28.60;41.30
67598;DHT22;62026;39.230;9.122;2023-08-31T12:40:01;28.60;40.90
67598;DHT22;62026;39.230;9.122;2023-08-31T12:42:31;28.70;40.70
67598;DHT22;62026;39.230;9.122;2023-08-31T12:44:57;28.70;39.50
67598;DHT22;62026;39.230;9.122;2023-08-31T12:47:23;28.70;40.60
67598;DHT22;62026;39.230;9.122;2023-08-31T12:49:49;28.60;41.40
67598;DHT22;62026;39.230;9.122;2023-08-31T12:52:15;28.50;41.60
67598;DHT22;62026;39.230;9.122;2023-08-31T12:54:41;28.50;41.50
67598;DHT22;62026;39.230;9.122;2023-08-31T12:57:07;28.50;41.20
67598;DHT22;62026;39.230;9.122;2023-08-31T12:59:33;28.50;41.50
67598;DHT22;62026;39.230;9.122;2023-08-31T13:01:59;28.40;41.30
67598;DHT22;62026;39.230;9.122;2023-08-31T13:04:25;28.50;41.40
67598;DHT22;62026;39.230;9.122;2023-08-31T13:06:51;28.60;41.70
67598;DHT22;62026;39.230;9.122;2023-08-31T13:09:17;28.50;41.30
67598;DHT22;62026;39.230;9.122;2023-08-31T13:11:43;28.50;40.70
67598;DHT22;62026;39.230;9.122;2023-08-31T13:14:09;28.50;40.90
67598;DHT22;62026;39.230;9.122;2023-08-31T13:16:35;28.50;40.60
67598;DHT22;62026;39.230;9.122;2023-08-31T13:19:05;28.50;40.00
67598;DHT22;62026;39.230;9.122;2023-08-31T13:21:31;28.50;39.90
67598;DHT22;62026;39.230;9.122;2023-08-31T13:23:57;28.40;39.70
67598;DHT22;62026;39.230;9.122;2023-08-31T13:26:23;28.50;39.80
67598;DHT22;62026;39.230;9.122;2023-08-31T13:28:49;28.40;39.70
67598;DHT22;62026;39.230;9.122;2023-08-31T13:31:15;28.40;39.90
67598;DHT22;62026;39.230;9.122;2023-08-31T13:33:41;28.40;39.90
67598;DHT22;62026;39.230;9.122;2023-08-31T13:36:08;28.40;40.20
67598;DHT22;62026;39.230;9.122;2023-08-31T13:38:35;28.40;40.30
67598;DHT22;62026;39.230;9.122;2023-08-31T13:41:01;28.40;40.40
67598;DHT22;62026;39.230;9.122;2023-08-31T13:43:29;28.40;40.10
67598;DHT22;62026;39.230;9.122;2023-08-31T13:45:55;28.40;40.10
67598;DHT22;62026;39.230;9.122;2023-08-31T13:48:21;28.40;39.70
67598;DHT22;62026;39.230;9.122;2023-08-31T13:50:48;28.30;39.80
67598;DHT22;62026;39.230;9.122;2023-08-31T13:53:15;28.40;40.00
67598;DHT22;62026;39.230;9.122;2023-08-31T13:55:41;28.40;40.20
67598;DHT22;62026;39.230;9.122;2023-08-31T13:58:08;28.40;40.30
67598;DHT22;62026;39.230;9.122;2023-08-31T14:00:35;28.40;40.40
67598;DHT22;62026;39.230;9.122;2023-08-31T14:03:01;28.40;40.60
67598;DHT22;62026;39.230;9.122;2023-08-31T14:05:31;28.40;40.70
67598;DHT22;62026;39.230;9.122;2023-08-31T14:07:58;28.40;41.00
67598;DHT22;62026;39.230;9.122;2023-08-31T14:10:27;28.40;41.00
67598;DHT22;62026;39.230;9.122;2023-08-31T14:12:53;28.40;41.20
67598;DHT22;62026;39.230;9.122;2023-08-31T14:15:19;28.40;41.10
67598;DHT22;62026;39.230;9.122;2023-08-31T14:17:45;28.40;41.20
67598;DHT22;62026;39.230;9.122;2023-08-31T14:20:11;28.40;41.30
67598;DHT22;62026;39.230;9.122;2023-08-31T14:22:38;28.40;41.30
67598;DHT22;62026;39.230;9.122;2023-08-31T14:25:10;28.40;41.60
67598;DHT22;62026;39.230;9.122;2023-08-31T14:27:37;28.30;41.70
67598;DHT22;62026;39.230;9.122;2023-08-31T14:30:04;28.30;41.60
67598;DHT22;62026;39.230;9.122;2023-08-31T14:32:32;28.30;41.60
67598;DHT22;62026;39.230;9.122;2023-08-31T14:34:58;28.30;41.30
67598;DHT22;62026;39.230;9.122;2023-08-31T14:37:24;28.30;41.40
67598;DHT22;62026;39.230;9.122;2023-08-31T14:39:50;28.30;41.60
67598;DHT22;62026;39.230;9.122;2023-08-31T14:42:17;28.40;41.50
67598;DHT22;62026;39.230;9.122;2023-08-31T14:44:49;28.40;41.40
67598;DHT22;62026;39.230;9.122;2023-08-31T14:47:15;28.30;41.40
67598;DHT22;62026;39.230;9.122;2023-08-31T14:49:42;28.30;41.10
67598;DHT22;62026;39.230;9.122;2023-08-31T14:52:08;28.30;41.20
67598;DHT22;62026;39.230;9.122;2023-08-31T14:54:34;28.30;41.40
67598;DHT22;62026;39.230;9.122;2023-08-31T14:57:01;28.40;41.40
67598;DHT22;62026;39.230;9.122;2023-08-31T14:59:29;28.40;41.50
67598;DHT22;62026;39.230;9.122;2023-08-31T15:01:55;28.30;41.30
67598;DHT22;62026;39.230;9.122;2023-08-31T15:04:21;28.30;41.40
67598;DHT22;62026;39.230;9.122;2023-08-31T15:06:47;28.30;41.50
67598;DHT22;62026;39.230;9.122;2023-08-31T15:09:13;28.40;41.40
67598;DHT22;62026;39.230;9.122;2023-08-31T15:11:39;28.30;41.40
67598;DHT22;62026;39.230;9.122;2023-08-31T15:14:05;28.30;41.50
67598;DHT22;62026;39.230;9.122;2023-08-31T15:16:32;28.30;41.70
67598;DHT22;62026;39.230;9.122;2023-08-31T15:19:00;28.30;41.70
67598;DHT22;62026;39.230;9.122;2023-08-31T15:21:26;28.40;41.70
67598;DHT22;62026;39.230;9.122;2023-08-31T15:23:52;28.40;41.70
67598;DHT22;62026;39.230;9.122;2023-08-31T15:26:18;28.30;41.80
67598;DHT22;62026;39.230;9.122;2023-08-31T15:28:44;28.30;42.00
67598;DHT22;62026;39.230;9.122;2023-08-31T15:31:14;28.30;42.10
67598;DHT22;62026;39.230;9.122;2023-08-31T15:33:42;28.30;42.00
67598;DHT22;62026;39.230;9.122;2023-08-31T15:36:09;28.30;41.80
67598;DHT22;62026;39.230;9.122;2023-08-31T15:38:37;28.20;42.00
67598;DHT22;62026;39.230;9.122;2023-08-31T15:41:06;28.20;42.20
67598;DHT22;62026;39.230;9.122;2023-08-31T15:43:35;28.20;42.40